createdAt,value
2018-01-19T00:00:45.429Z,0.00
2018-01-19T00:01:45.681Z,0.00
2018-01-19T00:02:45.381Z,0.00
2018-01-19T00:03:45.285Z,0.00
2018-01-19T00:04:45.235Z,0.00
2018-01-19T00:05:45.193Z,0.00
2018-01-19T00:06:45.150Z,0.00
2018-01-19T00:07:45.402Z,0.00
2018-01-19T00:08:45.260Z,0.00
2018-01-19T00:09:45.047Z,0.00
2018-01-19T00:10:44.956Z,0.00
2018-01-19T00:11:44.911Z,0.00
2018-01-19T00:12:44.867Z,0.00
2018-01-19T00:13:45.117Z,0.00
2018-01-19T00:14:44.770Z,0.00
2018-01-19T00:15:44.725Z,0.00
2018-01-19T00:16:44.676Z,0.00
2018-01-19T00:17:44.630Z,0.00
2018-01-19T00:18:44.583Z,0.00
2018-01-19T00:19:44.584Z,0.00
2018-01-19T00:20:44.789Z,0.00
2018-01-19T00:21:44.443Z,0.00
2018-01-19T00:22:44.447Z,0.00
2018-01-19T00:23:44.347Z,0.00
2018-01-19T00:24:44.301Z,0.00
2018-01-19T00:25:44.403Z,0.00
2018-01-19T00:26:44.208Z,0.00
2018-01-19T00:27:44.462Z,0.00
2018-01-19T00:28:44.121Z,0.00
2018-01-19T00:29:44.068Z,0.00
2018-01-19T00:30:44.026Z,0.00
2018-01-19T00:31:44.269Z,0.00
2018-01-19T00:32:43.924Z,0.00
2018-01-19T00:33:43.878Z,0.00
2018-01-19T00:34:44.134Z,0.00
2018-01-19T00:35:43.784Z,0.00
2018-01-19T00:36:43.735Z,0.00
2018-01-19T00:37:43.694Z,0.00
2018-01-19T00:38:43.645Z,0.00
2018-01-19T00:39:43.597Z,0.00
2018-01-19T00:40:43.549Z,0.00
2018-01-19T00:41:43.800Z,0.00
2018-01-19T00:42:43.453Z,0.00
2018-01-19T00:43:43.455Z,0.00
2018-01-19T00:44:43.359Z,0.00
2018-01-19T00:45:43.310Z,0.00
2018-01-19T00:46:43.263Z,0.00
2018-01-19T00:47:43.216Z,0.00
2018-01-19T00:48:43.470Z,0.00
2018-01-19T00:49:43.123Z,0.00
2018-01-19T00:50:43.075Z,0.00
2018-01-19T00:51:43.028Z,0.00
2018-01-19T00:52:43.184Z,0.00
2018-01-19T00:53:42.936Z,0.00
2018-01-19T00:54:42.885Z,0.00
2018-01-19T00:55:43.141Z,0.00
2018-01-19T00:56:42.791Z,0.00
2018-01-19T00:57:42.743Z,0.00
2018-01-19T00:58:42.847Z,0.00
2018-01-19T00:59:42.650Z,0.00
2018-01-19T01:00:42.602Z,0.00
2018-01-19T01:01:42.852Z,0.00
2018-01-19T01:02:42.506Z,0.00
2018-01-19T01:03:42.458Z,0.00
2018-01-19T01:04:42.411Z,0.00
2018-01-19T01:05:42.367Z,0.00
2018-01-19T01:06:42.367Z,0.00
2018-01-19T01:07:42.570Z,0.00
2018-01-19T01:08:42.229Z,0.00
2018-01-19T01:09:42.178Z,0.00
2018-01-19T01:10:42.127Z,0.00
2018-01-19T01:11:42.080Z,0.00
2018-01-19T01:12:42.032Z,0.00
2018-01-19T01:13:42.286Z,0.00
2018-01-19T01:14:41.942Z,0.00
2018-01-19T01:15:41.898Z,0.00
2018-01-19T01:16:41.842Z,0.00
2018-01-19T01:17:41.796Z,0.00
2018-01-19T01:18:41.755Z,0.00
2018-01-19T01:19:42.000Z,0.00
2018-01-19T01:20:41.654Z,0.00
2018-01-19T01:21:41.605Z,0.00
2018-01-19T01:22:41.559Z,0.00
2018-01-19T01:23:41.511Z,0.00
2018-01-19T01:24:41.514Z,0.00
2018-01-19T01:25:41.719Z,0.00
2018-01-19T01:26:41.374Z,0.00
2018-01-19T01:27:41.371Z,0.00
2018-01-19T01:28:41.275Z,0.00
2018-01-19T01:29:41.277Z,0.00
2018-01-19T01:30:41.189Z,0.00
2018-01-19T01:31:41.191Z,0.00
2018-01-19T01:32:41.383Z,0.00
2018-01-19T01:33:41.034Z,0.00
2018-01-19T01:34:41.040Z,0.00
2018-01-19T01:35:41.140Z,0.00
2018-01-19T01:36:40.894Z,0.00
2018-01-19T01:37:40.842Z,0.00
2018-01-19T01:38:40.797Z,0.00
2018-01-19T01:39:41.048Z,0.00
2018-01-19T01:40:40.700Z,0.00
2018-01-19T01:41:40.703Z,0.00
2018-01-19T01:42:40.655Z,0.00
2018-01-19T01:43:40.560Z,0.00
2018-01-19T01:44:40.511Z,0.00
2018-01-19T01:45:40.466Z,0.00
2018-01-19T01:46:40.715Z,0.00
2018-01-19T01:47:40.372Z,0.00
2018-01-19T01:48:40.369Z,0.00
2018-01-19T01:49:40.272Z,0.00
2018-01-19T01:50:40.261Z,0.00
2018-01-19T01:51:40.253Z,0.00
2018-01-19T01:52:40.184Z,0.00
2018-01-19T01:53:40.386Z,0.00
2018-01-19T01:54:40.036Z,0.00
2018-01-19T01:55:39.992Z,0.00
2018-01-19T01:56:39.940Z,0.00
2018-01-19T01:57:39.945Z,0.00
2018-01-19T01:58:40.143Z,0.00
2018-01-19T01:59:39.796Z,0.00
2018-01-19T02:00:40.050Z,0.00
2018-01-19T02:01:39.709Z,0.00
2018-01-19T02:02:39.654Z,0.00
2018-01-19T02:03:39.611Z,0.00
2018-01-19T02:04:39.615Z,0.00
2018-01-19T02:05:39.514Z,0.00
2018-01-19T02:06:39.463Z,0.00
2018-01-19T02:07:39.717Z,0.00
2018-01-19T02:08:39.370Z,0.00
2018-01-19T02:09:39.322Z,0.00
2018-01-19T02:10:39.273Z,0.00
2018-01-19T02:11:39.228Z,0.00
2018-01-19T02:12:39.183Z,0.00
2018-01-19T02:13:39.432Z,0.00
2018-01-19T02:14:39.086Z,0.00
2018-01-19T02:15:39.038Z,0.00
2018-01-19T02:16:38.995Z,0.00
2018-01-19T02:17:38.943Z,0.00
2018-01-19T02:18:38.894Z,0.00
2018-01-19T02:19:39.153Z,0.00
2018-01-19T02:20:38.850Z,0.00
2018-01-19T02:21:38.754Z,0.00
2018-01-19T02:22:38.703Z,0.00
2018-01-19T02:23:38.657Z,0.00
2018-01-19T02:24:38.609Z,0.00
2018-01-19T02:25:38.863Z,0.00
2018-01-19T02:26:38.566Z,0.00
2018-01-19T02:27:38.467Z,0.00
2018-01-19T02:28:38.424Z,0.00
2018-01-19T02:29:38.373Z,0.00
2018-01-19T02:30:38.326Z,0.00
2018-01-19T02:31:38.578Z,0.00
2018-01-19T02:32:38.281Z,0.00
2018-01-19T02:33:38.189Z,0.00
2018-01-19T02:34:38.135Z,0.00
2018-01-19T02:35:38.088Z,0.00
2018-01-19T02:36:38.045Z,0.00
2018-01-19T02:37:38.299Z,0.00
2018-01-19T02:38:37.949Z,0.00
2018-01-19T02:39:37.898Z,0.00
2018-01-19T02:40:37.856Z,0.00
2018-01-19T02:41:37.803Z,0.00
2018-01-19T02:42:37.754Z,0.00
2018-01-19T02:43:37.708Z,0.00
2018-01-19T02:44:37.965Z,0.00
2018-01-19T02:45:37.614Z,0.00
2018-01-19T02:46:37.566Z,0.00
2018-01-19T02:47:37.518Z,0.00
2018-01-19T02:48:37.474Z,0.00
2018-01-19T02:50:37.379Z,0.00
2018-01-19T02:51:37.634Z,0.00
2018-01-19T02:52:37.332Z,0.00
2018-01-19T02:53:37.238Z,0.00
2018-01-19T02:54:37.237Z,0.00
2018-01-19T02:55:37.140Z,0.00
2018-01-19T02:56:37.095Z,0.00
2018-01-19T02:57:37.100Z,0.00
2018-01-19T02:58:37.303Z,0.00
2018-01-19T02:59:36.955Z,0.00
2018-01-19T03:00:36.905Z,0.00
2018-01-19T03:01:36.863Z,0.00
2018-01-19T03:02:36.808Z,0.00
2018-01-19T03:03:36.762Z,0.00
2018-01-19T03:04:36.715Z,0.00
2018-01-19T03:05:36.967Z,0.00
2018-01-19T03:06:36.621Z,0.00
2018-01-19T03:07:36.575Z,0.00
2018-01-19T03:08:36.580Z,0.00
2018-01-19T03:09:36.479Z,0.00
2018-01-19T03:10:36.431Z,0.00
2018-01-19T03:11:36.438Z,0.00
2018-01-19T03:12:36.640Z,0.00
2018-01-19T03:13:36.297Z,0.00
2018-01-19T03:14:36.293Z,0.00
2018-01-19T03:15:36.194Z,0.00
2018-01-19T03:16:36.150Z,0.00
2018-01-19T03:17:36.098Z,0.00
2018-01-19T03:18:36.351Z,0.00
2018-01-19T03:19:36.004Z,0.00
2018-01-19T03:20:35.976Z,0.00
2018-01-19T03:21:35.923Z,0.00
2018-01-19T03:22:35.869Z,0.00
2018-01-19T03:23:35.872Z,0.00
2018-01-19T03:24:36.075Z,0.00
2018-01-19T03:25:35.728Z,0.00
2018-01-19T03:26:35.674Z,0.00
2018-01-19T03:27:35.626Z,0.00
2018-01-19T03:28:35.581Z,0.00
2018-01-19T03:29:35.534Z,0.00
2018-01-19T03:30:35.821Z,0.00
2018-01-19T03:31:35.442Z,0.00
2018-01-19T03:32:35.393Z,0.00
2018-01-19T03:33:35.346Z,0.00
2018-01-19T03:34:35.347Z,0.00
2018-01-19T03:35:35.261Z,0.00
2018-01-19T03:36:35.508Z,0.00
2018-01-19T03:37:35.157Z,0.00
2018-01-19T03:38:35.118Z,0.00
2018-01-19T03:39:35.074Z,0.00
2018-01-19T03:40:35.021Z,0.00
2018-01-19T03:41:35.027Z,0.00
2018-01-19T03:42:35.223Z,0.00
2018-01-19T03:43:34.877Z,0.00
2018-01-19T03:44:34.831Z,0.00
2018-01-19T03:45:34.782Z,0.00
2018-01-19T03:46:34.737Z,0.00
2018-01-19T03:47:34.744Z,0.00
2018-01-19T03:48:34.946Z,0.00
2018-01-19T03:49:34.650Z,0.00
2018-01-19T03:50:34.552Z,0.00
2018-01-19T03:51:34.504Z,0.00
2018-01-19T03:52:34.456Z,0.00
2018-01-19T03:53:34.410Z,0.00
2018-01-19T03:54:34.365Z,0.00
2018-01-19T03:55:34.620Z,0.00
2018-01-19T03:56:34.271Z,0.00
2018-01-19T03:57:34.229Z,0.00
2018-01-19T03:58:34.231Z,0.00
2018-01-19T03:59:34.131Z,0.00
2018-01-19T04:00:34.085Z,0.00
2018-01-19T04:01:34.038Z,0.00
2018-01-19T04:02:34.308Z,0.00
2018-01-19T04:03:33.998Z,0.00
2018-01-19T04:04:33.906Z,0.00
2018-01-19T04:05:33.853Z,0.00
2018-01-19T04:06:33.859Z,0.00
2018-01-19T04:07:33.759Z,0.00
2018-01-19T04:08:33.714Z,0.00
2018-01-19T04:09:34.023Z,0.00
2018-01-19T04:10:33.671Z,0.00
2018-01-19T04:11:33.627Z,0.00
2018-01-19T04:12:33.582Z,0.00
2018-01-19T04:13:33.481Z,0.00
2018-01-19T04:14:33.497Z,0.00
2018-01-19T04:15:33.440Z,0.00
2018-01-19T04:16:33.647Z,0.00
2018-01-19T04:17:33.301Z,0.00
2018-01-19T04:18:33.307Z,0.00
2018-01-19T04:19:33.205Z,0.00
2018-01-19T04:20:33.162Z,0.00
2018-01-19T04:21:33.121Z,0.00
2018-01-19T04:22:33.068Z,0.00
2018-01-19T04:23:33.320Z,0.00
2018-01-19T04:24:32.974Z,0.00
2018-01-19T04:25:32.933Z,0.00
2018-01-19T04:26:32.931Z,0.00
2018-01-19T04:27:32.840Z,0.00
2018-01-19T04:28:32.812Z,0.00
2018-01-19T04:29:33.045Z,0.00
2018-01-19T04:30:32.701Z,0.00
2018-01-19T04:31:32.651Z,0.00
2018-01-19T04:32:32.656Z,0.00
2018-01-19T04:33:32.562Z,0.00
2018-01-19T04:34:32.513Z,0.00
2018-01-19T04:35:32.768Z,0.00
2018-01-19T04:36:32.422Z,0.00
2018-01-19T04:37:32.378Z,0.00
2018-01-19T04:38:32.334Z,0.00
2018-01-19T04:39:32.283Z,0.00
2018-01-19T04:40:32.242Z,0.00
2018-01-19T04:41:32.494Z,0.00
2018-01-19T04:42:32.146Z,0.00
2018-01-19T04:43:32.101Z,0.00
2018-01-19T04:44:32.104Z,0.00
2018-01-19T04:45:32.015Z,0.00
2018-01-19T04:46:31.964Z,0.00
2018-01-19T04:47:32.217Z,0.00
2018-01-19T04:48:31.872Z,0.00
2018-01-19T04:49:31.826Z,0.00
2018-01-19T04:50:31.780Z,0.00
2018-01-19T04:51:31.787Z,0.00
2018-01-19T04:52:31.686Z,0.00
2018-01-19T04:53:31.942Z,0.00
2018-01-19T04:54:31.595Z,0.00
2018-01-19T04:55:31.552Z,0.00
2018-01-19T04:56:31.505Z,0.00
2018-01-19T04:57:31.460Z,0.00
2018-01-19T04:58:31.414Z,0.00
2018-01-19T04:59:31.372Z,0.00
2018-01-19T05:00:31.625Z,0.00
2018-01-19T05:01:31.279Z,0.00
2018-01-19T05:02:31.233Z,0.00
2018-01-19T05:03:31.236Z,0.00
2018-01-19T05:04:31.193Z,0.00
2018-01-19T05:05:31.097Z,0.00
2018-01-19T05:06:31.103Z,0.00
2018-01-19T05:07:31.313Z,0.00
2018-01-19T05:08:30.954Z,0.00
2018-01-19T05:09:30.975Z,0.00
2018-01-19T05:10:30.861Z,0.00
2018-01-19T05:11:30.819Z,0.00
2018-01-19T05:12:30.770Z,0.00
2018-01-19T05:13:30.775Z,0.00
2018-01-19T05:14:30.979Z,0.00
2018-01-19T05:15:30.631Z,0.00
2018-01-19T05:16:30.642Z,0.00
2018-01-19T05:17:30.542Z,0.00
2018-01-19T05:18:30.497Z,0.00
2018-01-19T05:19:30.751Z,0.00
2018-01-19T05:20:30.405Z,0.00
2018-01-19T05:21:30.666Z,0.00
2018-01-19T05:22:30.322Z,0.00
2018-01-19T05:23:30.282Z,0.00
2018-01-19T05:24:30.231Z,0.00
2018-01-19T05:25:30.228Z,0.00
2018-01-19T05:26:30.131Z,0.00
2018-01-19T05:27:30.085Z,0.00
2018-01-19T05:28:30.338Z,0.00
2018-01-19T05:29:30.002Z,0.00
2018-01-19T05:30:29.947Z,0.00
2018-01-19T05:31:29.913Z,0.00
2018-01-19T05:32:29.865Z,0.00
2018-01-19T05:33:29.811Z,0.00
2018-01-19T05:34:29.764Z,0.00
2018-01-19T05:35:30.021Z,0.00
2018-01-19T05:36:29.727Z,0.00
2018-01-19T05:37:29.627Z,0.00
2018-01-19T05:38:29.648Z,0.00
2018-01-19T05:39:30.270Z,0.00
2018-01-19T05:40:29.922Z,0.00
2018-01-19T05:41:30.064Z,0.00
2018-01-19T05:43:29.862Z,0.00
2018-01-19T05:44:29.572Z,0.00
2018-01-19T05:45:30.195Z,0.00
2018-01-19T05:46:29.697Z,0.00
2018-01-19T05:47:30.690Z,0.00
2018-01-19T05:48:29.124Z,0.00
2018-01-19T05:49:29.084Z,0.00
2018-01-19T05:50:29.251Z,0.00
2018-01-19T05:51:29.466Z,0.00
2018-01-19T05:52:29.716Z,0.00
2018-01-19T05:53:29.914Z,0.00
2018-01-19T05:54:29.575Z,0.00
2018-01-19T05:55:29.070Z,0.00
2018-01-19T05:56:28.760Z,0.00
2018-01-19T05:57:28.724Z,0.00
2018-01-19T05:58:28.697Z,0.00
2018-01-19T05:59:28.924Z,0.00
2018-01-19T06:00:28.581Z,0.00
2018-01-19T06:01:28.585Z,0.00
2018-01-19T06:02:28.536Z,0.00
2018-01-19T06:03:28.439Z,0.00
2018-01-19T06:04:28.444Z,0.00
2018-01-19T06:05:28.654Z,0.00
2018-01-19T06:06:28.305Z,0.00
2018-01-19T06:07:28.258Z,0.00
2018-01-19T06:08:28.261Z,0.00
2018-01-19T06:09:28.168Z,0.00
2018-01-19T06:10:28.272Z,0.00
2018-01-19T06:11:28.078Z,0.00
2018-01-19T06:12:28.329Z,0.00
2018-01-19T06:13:27.989Z,0.00
2018-01-19T06:14:27.941Z,0.00
2018-01-19T06:15:27.893Z,0.00
2018-01-19T06:16:27.898Z,0.00
2018-01-19T06:17:27.800Z,0.00
2018-01-19T06:18:27.755Z,0.00
2018-01-19T06:19:28.009Z,0.00
2018-01-19T06:20:27.665Z,0.00
2018-01-19T06:21:27.617Z,0.00
2018-01-19T06:22:27.576Z,0.00
2018-01-19T06:23:27.526Z,0.00
2018-01-19T06:24:27.487Z,0.00
2018-01-19T06:25:27.438Z,0.00
2018-01-19T06:26:27.690Z,0.00
2018-01-19T06:27:27.343Z,0.00
2018-01-19T06:28:27.325Z,0.00
2018-01-19T06:29:27.253Z,0.00
2018-01-19T06:30:27.258Z,0.00
2018-01-19T06:31:27.162Z,0.00
2018-01-19T06:32:27.166Z,0.00
2018-01-19T06:33:27.371Z,0.00
2018-01-19T06:34:27.022Z,0.00
2018-01-19T06:35:27.029Z,0.00
2018-01-19T06:36:27.003Z,0.00
2018-01-19T06:37:26.888Z,0.00
2018-01-19T06:38:26.891Z,0.00
2018-01-19T06:39:26.844Z,0.00
2018-01-19T06:40:27.049Z,0.00
2018-01-19T06:41:26.710Z,0.00
2018-01-19T06:42:26.659Z,0.00
2018-01-19T06:43:26.610Z,0.00
2018-01-19T06:44:26.768Z,0.00
2018-01-19T06:45:26.528Z,0.00
2018-01-19T06:46:26.480Z,0.00
2018-01-19T06:47:26.729Z,0.00
2018-01-19T06:48:26.383Z,0.00
2018-01-19T06:49:26.348Z,0.00
2018-01-19T06:50:26.342Z,0.00
2018-01-19T06:51:26.246Z,0.00
2018-01-19T06:52:26.201Z,0.00
2018-01-19T06:53:26.452Z,0.00
2018-01-19T06:54:26.108Z,0.00
2018-01-19T06:55:26.112Z,4.00
2018-01-19T06:56:26.023Z,4.00
2018-01-19T06:57:26.022Z,0.00
2018-01-19T06:58:25.922Z,4.00
2018-01-19T06:59:26.179Z,4.00
2018-01-19T07:00:25.833Z,4.00
2018-01-19T07:01:25.944Z,4.00
2018-01-19T07:02:25.748Z,4.00
2018-01-19T07:03:25.746Z,8.00
2018-01-19T07:04:25.655Z,8.00
2018-01-19T07:05:25.904Z,12.00
2018-01-19T07:06:25.611Z,12.00
2018-01-19T07:07:25.530Z,12.00
2018-01-19T07:08:25.543Z,12.00
2018-01-19T07:09:25.480Z,16.00
2018-01-19T07:10:25.373Z,20.00
2018-01-19T07:11:25.702Z,24.00
2018-01-19T07:12:25.359Z,28.00
2018-01-19T07:13:25.238Z,32.00
2018-01-19T07:14:25.193Z,36.00
2018-01-19T07:15:25.202Z,40.00
2018-01-19T07:16:25.105Z,36.00
2018-01-19T07:17:25.358Z,40.00
2018-01-19T07:18:25.067Z,44.00
2018-01-19T07:19:24.962Z,44.00
2018-01-19T07:20:24.918Z,48.00
2018-01-19T07:21:24.922Z,52.00
2018-01-19T07:22:24.827Z,68.00
2018-01-19T07:23:24.784Z,80.00
2018-01-19T07:24:25.085Z,96.00
2018-01-19T07:25:24.740Z,104.00
2018-01-19T07:26:24.641Z,116.00
2018-01-19T07:27:24.599Z,128.00
2018-01-19T07:28:24.602Z,140.00
2018-01-19T07:29:24.503Z,144.00
2018-01-19T07:30:24.459Z,152.00
2018-01-19T07:31:24.712Z,148.00
2018-01-19T07:32:24.367Z,144.00
2018-01-19T07:33:24.319Z,152.00
2018-01-19T07:34:24.278Z,168.00
2018-01-19T07:35:24.227Z,192.00
2018-01-19T07:36:24.182Z,208.00
2018-01-19T07:37:24.137Z,228.00
2018-01-19T07:38:24.390Z,228.00
2018-01-19T07:39:24.044Z,228.00
2018-01-19T07:40:24.003Z,252.00
2018-01-19T07:41:23.954Z,268.00
2018-01-19T07:42:23.907Z,292.00
2018-01-19T07:43:23.861Z,316.00
2018-01-19T07:44:23.867Z,352.00
2018-01-19T07:45:24.072Z,332.00
2018-01-19T07:46:23.723Z,332.00
2018-01-19T07:47:23.678Z,340.00
2018-01-19T07:48:23.633Z,376.00
2018-01-19T07:49:23.637Z,400.00
2018-01-19T07:50:23.740Z,408.00
2018-01-19T07:51:23.508Z,392.00
2018-01-19T07:52:23.750Z,388.00
2018-01-19T07:53:23.412Z,420.00
2018-01-19T07:54:23.356Z,396.00
2018-01-19T07:55:23.314Z,376.00
2018-01-19T07:56:23.316Z,368.00
2018-01-19T07:57:23.219Z,384.00
2018-01-19T07:58:23.174Z,380.00
2018-01-19T07:59:23.439Z,412.00
2018-01-19T08:00:23.083Z,428.00
2018-01-19T08:01:23.187Z,456.00
2018-01-19T08:02:22.991Z,460.00
2018-01-19T08:03:22.956Z,452.00
2018-01-19T08:04:23.054Z,472.00
2018-01-19T08:05:23.159Z,500.00
2018-01-19T08:06:22.808Z,576.00
2018-01-19T08:07:22.764Z,592.00
2018-01-19T08:08:22.739Z,620.00
2018-01-19T08:09:22.732Z,900.00
2018-01-19T08:10:22.626Z,1124.00
2018-01-19T08:11:22.880Z,1184.00
2018-01-19T08:12:22.589Z,1136.00
2018-01-19T08:13:22.539Z,1172.00
2018-01-19T08:14:22.441Z,1160.00
2018-01-19T08:15:22.398Z,1148.00
2018-01-19T08:16:22.407Z,1156.00
2018-01-19T08:17:22.611Z,1156.00
2018-01-19T08:18:22.261Z,1224.00
2018-01-19T08:19:22.268Z,1324.00
2018-01-19T08:20:22.167Z,1360.00
2018-01-19T08:21:22.422Z,1420.00
2018-01-19T08:22:22.073Z,1580.00
2018-01-19T08:23:22.336Z,1512.00
2018-01-19T08:24:21.985Z,1540.00
2018-01-19T08:25:21.946Z,1732.00
2018-01-19T08:26:21.899Z,1940.00
2018-01-19T08:27:21.901Z,2128.00
2018-01-19T08:28:21.800Z,2324.00
2018-01-19T08:29:22.062Z,2872.00
2018-01-19T08:30:21.710Z,3652.00
2018-01-19T08:31:21.671Z,4348.00
2018-01-19T08:32:21.678Z,4632.00
2018-01-19T08:33:21.728Z,4688.00
2018-01-19T08:34:21.585Z,5516.00
2018-01-19T08:35:21.598Z,5632.00
2018-01-19T08:36:21.821Z,4780.00
2018-01-19T08:37:21.398Z,4292.00
2018-01-19T08:39:21.365Z,4140.00
2018-01-19T08:40:21.261Z,4004.00
2018-01-19T08:41:21.262Z,3652.00
2018-01-19T08:42:21.218Z,3132.00
2018-01-19T08:43:21.435Z,2740.00
2018-01-19T08:44:21.118Z,2824.00
2018-01-19T08:45:21.030Z,3000.00
2018-01-19T08:46:21.037Z,3044.00
2018-01-19T08:47:20.947Z,2924.00
2018-01-19T08:48:20.895Z,2604.00
2018-01-19T08:49:20.852Z,2284.00
2018-01-19T08:50:21.105Z,2332.00
2018-01-19T08:51:20.760Z,2168.00
2018-01-19T08:52:20.877Z,2192.00
2018-01-19T08:53:20.669Z,2300.00
2018-01-19T08:54:20.626Z,2348.00
2018-01-19T08:55:20.579Z,2092.00
2018-01-19T08:56:20.590Z,2032.00
2018-01-19T08:57:20.788Z,2028.00
2018-01-19T08:58:20.450Z,2280.00
2018-01-19T08:59:20.394Z,2356.00
2018-01-19T09:00:20.348Z,2968.00
2018-01-19T09:01:20.354Z,3244.00
2018-01-19T09:02:20.329Z,3164.00
2018-01-19T09:03:20.217Z,3104.00
2018-01-19T09:04:20.520Z,3256.00
2018-01-19T09:05:20.121Z,3244.00
2018-01-19T09:06:20.090Z,3204.00
2018-01-19T09:07:20.082Z,3152.00
2018-01-19T09:08:20.056Z,3412.00
2018-01-19T09:09:19.945Z,4048.00
2018-01-19T09:10:19.908Z,4216.00
2018-01-19T09:11:20.149Z,4004.00
2018-01-19T09:12:20.217Z,4204.00
2018-01-19T09:13:20.039Z,4536.00
2018-01-19T09:14:19.916Z,4668.00
2018-01-19T09:15:19.669Z,5060.00
2018-01-19T09:16:19.624Z,5568.00
2018-01-19T09:17:19.882Z,6236.00
2018-01-19T09:18:19.532Z,4988.00
2018-01-19T09:19:19.539Z,4000.00
2018-01-19T09:20:19.440Z,3660.00
2018-01-19T09:21:19.444Z,3240.00
2018-01-19T09:22:19.348Z,3332.00
2018-01-19T09:23:19.605Z,3244.00
2018-01-19T09:24:19.265Z,3036.00
2018-01-19T09:25:19.267Z,3360.00
2018-01-19T09:26:19.195Z,3980.00
2018-01-19T09:27:19.153Z,4152.00
2018-01-19T09:28:19.148Z,4072.00
2018-01-19T09:29:19.543Z,3640.00
2018-01-19T09:30:18.988Z,3644.00
2018-01-19T09:31:19.245Z,3340.00
2018-01-19T09:32:18.955Z,3356.00
2018-01-19T09:33:18.854Z,4096.00
2018-01-19T09:34:18.863Z,4560.00
2018-01-19T09:35:19.074Z,4616.00
2018-01-19T09:36:18.826Z,4708.00
2018-01-19T09:37:18.729Z,4100.00
2018-01-19T09:38:18.692Z,4196.00
2018-01-19T09:39:18.638Z,4928.00
2018-01-19T09:40:18.550Z,5348.00
2018-01-19T09:41:18.795Z,4844.00
2018-01-19T09:42:18.498Z,4144.00
2018-01-19T09:43:18.412Z,4536.00
2018-01-19T09:44:18.357Z,4148.00
2018-01-19T09:45:18.314Z,4236.00
2018-01-19T09:46:18.328Z,3620.00
2018-01-19T09:47:18.225Z,2912.00
2018-01-19T09:48:18.476Z,2636.00
2018-01-19T09:49:18.130Z,2648.00
2018-01-19T09:50:18.142Z,3256.00
2018-01-19T09:51:18.107Z,4148.00
2018-01-19T09:52:18.050Z,4100.00
2018-01-19T09:53:18.003Z,3092.00
2018-01-19T09:54:17.960Z,2772.00
2018-01-19T09:55:18.211Z,2768.00
2018-01-19T09:56:17.902Z,2688.00
2018-01-19T09:57:18.205Z,3180.00
2018-01-19T09:58:17.733Z,3872.00
2018-01-19T09:59:17.679Z,3952.00
2018-01-19T10:00:17.687Z,3548.00
2018-01-19T10:01:17.938Z,3628.00
2018-01-19T10:02:17.906Z,3932.00
2018-01-19T10:03:17.549Z,6808.00
2018-01-19T10:04:17.456Z,10220.00
2018-01-19T10:05:17.407Z,8168.00
2018-01-19T10:06:17.414Z,7492.00
2018-01-19T10:07:17.388Z,6564.00
2018-01-19T10:08:17.321Z,5328.00
2018-01-19T10:09:17.693Z,5268.00
2018-01-19T10:10:17.182Z,5472.00
2018-01-19T10:11:17.143Z,6100.00
2018-01-19T10:12:17.152Z,7000.00
2018-01-19T10:13:17.097Z,7124.00
2018-01-19T10:14:17.068Z,8328.00
2018-01-19T10:15:17.157Z,8228.00
2018-01-19T10:16:17.346Z,7240.00
2018-01-19T10:17:16.920Z,6580.00
2018-01-19T10:18:16.871Z,5740.00
2018-01-19T10:19:16.932Z,5224.00
2018-01-19T10:20:16.783Z,4852.00
2018-01-19T10:21:16.889Z,3532.00
2018-01-19T10:22:16.941Z,3556.00
2018-01-19T10:23:16.604Z,3848.00
2018-01-19T10:25:16.711Z,3920.00
2018-01-19T10:26:16.537Z,4000.00
2018-01-19T10:27:16.578Z,3924.00
2018-01-19T10:28:17.026Z,4484.00
2018-01-19T10:29:16.552Z,4952.00
2018-01-19T10:30:16.771Z,4924.00
2018-01-19T10:31:16.311Z,4100.00
2018-01-19T10:32:16.534Z,4208.00
2018-01-19T10:34:16.314Z,5060.00
2018-01-19T10:35:16.524Z,6460.00
2018-01-19T10:36:16.016Z,6180.00
2018-01-19T10:37:16.415Z,6584.00
2018-01-19T10:38:16.565Z,6604.00
2018-01-19T10:39:15.884Z,6540.00
2018-01-19T10:40:15.837Z,6748.00
2018-01-19T10:41:15.845Z,6988.00
2018-01-19T10:42:15.743Z,6836.00
2018-01-19T10:43:15.700Z,9484.00
2018-01-19T10:44:15.705Z,9804.00
2018-01-19T10:45:15.678Z,9404.00
2018-01-19T10:46:15.563Z,11804.00
2018-01-19T10:47:16.021Z,11764.00
2018-01-19T10:48:15.481Z,11304.00
2018-01-19T10:49:15.481Z,8312.00
2018-01-19T10:50:15.439Z,6168.00
2018-01-19T10:51:15.339Z,4112.00
2018-01-19T10:52:15.362Z,4368.00
2018-01-19T10:53:15.250Z,4848.00
2018-01-19T10:54:15.728Z,4852.00
2018-01-19T10:55:15.165Z,4796.00
2018-01-19T10:56:15.199Z,4128.00
2018-01-19T10:57:15.126Z,3960.00
2018-01-19T10:58:15.242Z,5020.00
2018-01-19T10:59:15.133Z,5616.00
2018-01-19T11:00:15.029Z,5796.00
2018-01-19T11:01:15.194Z,4916.00
2018-01-19T11:02:15.053Z,3416.00
2018-01-19T11:03:14.886Z,3380.00
2018-01-19T11:04:14.807Z,3212.00
2018-01-19T11:05:14.713Z,2888.00
2018-01-19T11:06:14.767Z,3624.00
2018-01-19T11:07:14.675Z,4144.00
2018-01-19T11:08:14.938Z,4784.00
2018-01-19T11:09:14.596Z,5372.00
2018-01-19T11:10:14.541Z,6412.00
2018-01-19T11:11:14.490Z,7160.00
2018-01-19T11:12:14.542Z,7528.00
2018-01-19T11:13:14.514Z,7996.00
2018-01-19T11:14:14.676Z,8148.00
2018-01-19T11:15:14.419Z,8224.00
2018-01-19T11:16:14.217Z,8024.00
2018-01-19T11:17:14.221Z,7572.00
2018-01-19T11:18:14.130Z,6972.00
2018-01-19T11:19:14.132Z,6016.00
2018-01-19T11:20:14.092Z,5208.00
2018-01-19T11:21:14.297Z,5772.00
2018-01-19T11:22:14.174Z,7272.00
2018-01-19T11:23:13.958Z,8180.00
2018-01-19T11:24:13.920Z,9256.00
2018-01-19T11:25:13.909Z,9920.00
2018-01-19T11:26:13.773Z,11140.00
2018-01-19T11:27:13.782Z,12096.00
2018-01-19T11:28:14.009Z,13128.00
2018-01-19T11:29:14.428Z,13744.00
2018-01-19T11:30:13.692Z,14364.00
2018-01-19T11:31:13.602Z,14888.00
2018-01-19T11:32:13.556Z,15652.00
2018-01-19T11:33:13.543Z,16872.00
2018-01-19T11:34:13.839Z,18912.00
2018-01-19T11:35:13.503Z,20768.00
2018-01-19T11:36:13.377Z,24128.00
2018-01-19T11:37:13.334Z,22304.00
2018-01-19T11:38:13.296Z,15040.00
2018-01-19T11:39:13.266Z,11772.00
2018-01-19T11:40:13.654Z,9828.00
2018-01-19T11:41:13.228Z,9828.00
2018-01-19T11:42:13.216Z,9332.00
2018-01-19T11:43:13.167Z,8520.00
2018-01-19T11:44:12.986Z,8204.00
2018-01-19T11:45:13.030Z,7084.00
2018-01-19T11:46:13.184Z,6020.00
2018-01-19T11:47:12.899Z,6540.00
2018-01-19T11:48:12.854Z,7104.00
2018-01-19T11:49:12.817Z,7504.00
2018-01-19T11:50:12.759Z,8288.00
2018-01-19T11:51:12.714Z,7696.00
2018-01-19T11:52:12.931Z,8096.00
2018-01-19T11:53:12.626Z,10112.00
2018-01-19T11:54:12.532Z,13968.00
2018-01-19T11:55:12.645Z,11984.00
2018-01-19T11:56:12.527Z,9396.00
2018-01-19T11:57:12.560Z,10284.00
2018-01-19T11:58:12.658Z,9760.00
2018-01-19T11:59:12.364Z,11772.00
2018-01-19T12:00:12.372Z,11512.00
2018-01-19T12:01:12.289Z,8676.00
2018-01-19T12:02:12.229Z,8988.00
2018-01-19T12:03:12.191Z,10076.00
2018-01-19T12:04:12.481Z,10252.00
2018-01-19T12:05:12.141Z,8520.00
2018-01-19T12:06:12.097Z,8140.00
2018-01-19T12:07:12.013Z,7600.00
2018-01-19T12:08:11.996Z,8064.00
2018-01-19T12:09:11.874Z,8028.00
2018-01-19T12:10:12.034Z,7636.00
2018-01-19T12:11:12.103Z,7028.00
2018-01-19T12:12:11.740Z,10668.00
2018-01-19T12:13:11.872Z,15944.00
2018-01-19T12:14:11.748Z,20480.00
2018-01-19T12:16:11.623Z,14776.00
2018-01-19T12:17:11.683Z,11044.00
2018-01-19T12:18:11.845Z,9320.00
2018-01-19T12:19:11.525Z,8332.00
2018-01-19T12:20:11.442Z,8576.00
2018-01-19T12:21:11.456Z,8860.00
2018-01-19T12:22:11.592Z,9400.00
2018-01-19T12:23:11.441Z,10288.00
2018-01-19T12:24:11.280Z,11372.00
2018-01-19T12:25:11.529Z,10016.00
2018-01-19T12:26:11.328Z,9164.00
2018-01-19T12:27:11.364Z,9584.00
2018-01-19T12:28:11.105Z,17216.00
2018-01-19T12:29:11.020Z,19392.00
2018-01-19T12:30:11.020Z,21184.00
2018-01-19T12:31:11.429Z,18848.00
2018-01-19T12:32:10.874Z,15764.00
2018-01-19T12:33:10.878Z,20896.00
2018-01-19T12:34:10.838Z,18112.00
2018-01-19T12:35:10.790Z,21344.00
2018-01-19T12:36:10.753Z,21472.00
2018-01-19T12:37:10.700Z,20960.00
2018-01-19T12:38:10.909Z,18400.00
2018-01-19T12:39:10.570Z,15120.00
2018-01-19T12:40:10.709Z,10652.00
2018-01-19T12:41:10.534Z,8844.00
2018-01-19T12:42:10.432Z,8932.00
2018-01-19T12:43:10.391Z,10740.00
2018-01-19T12:44:10.645Z,12796.00
2018-01-19T12:45:10.525Z,14244.00
2018-01-19T12:46:10.314Z,15384.00
2018-01-19T12:47:10.290Z,15576.00
2018-01-19T12:48:10.323Z,17216.00
2018-01-19T12:49:10.193Z,17824.00
2018-01-19T12:50:10.413Z,15572.00
2018-01-19T12:51:10.117Z,14500.00